Terminal Aerodrome Forecast
Issued by NWS Caribou, ME

Home | Current Version | Previous Version | Text Only | Print | Product List | Glossary On
Versions: 1 2 3 4 5 6 7 8 9 10 11 12 13 14 15 16
000
FTUS41 KCAR 030558
TAFCAR
TAF
KCAR 030558Z 0306/0406 28004KT 3SM BR SCT100
     FM030900 35008KT 6SM BR BKN007
     FM031200 34010KT P6SM SCT250
     FM040000 35004KT P6SM SKC=

USA.gov is the U.S. government's official web portal to all federal, state and local government web resources and services.